createdAt,value
2022-08-25T00:01:23.435Z,3.90
2022-08-25T00:03:54.272Z,3.38
2022-08-25T00:06:21.540Z,4.35
2022-08-25T00:08:49.213Z,3.90
2022-08-25T00:11:19.129Z,3.92
2022-08-25T00:13:50.687Z,3.70
2022-08-25T00:16:19.602Z,4.40
2022-08-25T00:18:50.449Z,4.65
2022-08-25T00:21:17.733Z,3.95
2022-08-25T00:23:45.266Z,4.35
2022-08-25T00:26:13.438Z,3.78
2022-08-25T00:28:40.496Z,4.25
2022-08-25T00:31:11.118Z,4.05
2022-08-25T00:33:38.069Z,4.18
2022-08-25T00:38:31.793Z,3.70
2022-08-25T00:41:07.536Z,3.70
2022-08-25T00:43:44.834Z,3.75
2022-08-25T00:46:18.525Z,4.43
2022-08-25T00:48:48.130Z,4.00
2022-08-25T00:51:30.430Z,4.13
2022-08-25T00:53:58.214Z,3.63
2022-08-25T00:56:27.192Z,3.90
2022-08-25T00:58:54.125Z,3.72
2022-08-25T01:01:20.846Z,4.10
2022-08-25T01:03:47.744Z,4.35
2022-08-25T01:06:14.876Z,4.45
2022-08-25T01:08:42.134Z,3.95
2022-08-25T01:11:11.127Z,3.90
2022-08-25T01:13:45.175Z,4.10
2022-08-25T01:16:13.782Z,3.83
2022-08-25T01:19:00.506Z,3.75
2022-08-25T01:21:29.930Z,3.90
2022-08-25T01:23:59.527Z,4.22
2022-08-25T01:26:31.049Z,3.97
2022-08-25T01:29:18.422Z,3.72
2022-08-25T01:31:45.295Z,3.85
2022-08-25T01:36:44.574Z,3.92
2022-08-25T01:39:13.282Z,3.58
2022-08-25T01:41:48.779Z,4.00
2022-08-25T01:44:19.171Z,3.83
2022-08-25T01:46:45.969Z,4.00
2022-08-25T01:49:12.673Z,4.03
2022-08-25T01:54:18.024Z,4.13
2022-08-25T01:59:14.453Z,4.10
2022-08-25T02:01:48.576Z,3.90
2022-08-25T02:04:15.538Z,4.65
2022-08-25T02:06:42.913Z,4.13
2022-08-25T02:09:15.393Z,4.55
2022-08-25T02:11:44.687Z,4.95
2022-08-25T02:14:15.478Z,4.25
2022-08-25T02:16:47.678Z,3.95
2022-08-25T02:19:15.469Z,3.45
2022-08-25T02:21:42.350Z,3.55
2022-08-25T02:24:10.119Z,3.83
2022-08-25T02:26:36.875Z,4.25
2022-08-25T02:31:30.629Z,4.65
2022-08-25T02:33:57.581Z,5.03
2022-08-25T02:36:24.750Z,5.28
2022-08-25T02:38:51.543Z,4.60
2022-08-25T02:43:48.548Z,4.47
2022-08-25T02:46:17.255Z,4.30
2022-08-25T02:48:44.521Z,4.45
2022-08-25T02:51:12.265Z,4.30
2022-08-25T02:53:40.647Z,3.80
2022-08-25T02:56:10.108Z,4.18
2022-08-25T02:58:38.141Z,3.90
2022-08-25T03:01:06.723Z,4.15
2022-08-25T03:03:38.833Z,4.32
2022-08-25T03:06:10.202Z,3.65
2022-08-25T03:08:37.776Z,3.92
2022-08-25T03:11:05.452Z,4.03
2022-08-25T03:13:32.437Z,4.20
2022-08-25T03:16:00.342Z,3.53
2022-08-25T03:18:27.771Z,4.60
2022-08-25T03:20:55.087Z,3.90
2022-08-25T03:23:21.835Z,4.05
2022-08-25T03:26:11.881Z,3.55
2022-08-25T03:28:38.855Z,4.03
2022-08-25T03:31:06.218Z,3.75
2022-08-25T03:33:33.175Z,4.13
2022-08-25T03:36:00.002Z,3.97
2022-08-25T03:40:54.652Z,4.70
2022-08-25T03:43:21.699Z,4.22
2022-08-25T03:45:48.828Z,4.70
2022-08-25T03:48:16.748Z,5.00
2022-08-25T03:50:50.650Z,4.00
2022-08-25T03:53:19.816Z,3.80
2022-08-25T03:55:47.082Z,4.63
2022-08-25T03:58:14.077Z,4.55
2022-08-25T04:00:40.903Z,4.50
2022-08-25T04:05:35.265Z,4.18
2022-08-25T04:08:02.291Z,3.63
2022-08-25T04:10:31.486Z,3.97
2022-08-25T04:12:58.279Z,4.05
2022-08-25T04:17:58.925Z,3.60
2022-08-25T04:20:26.435Z,3.95
2022-08-25T04:22:53.412Z,3.72
2022-08-25T04:25:20.399Z,4.30
2022-08-25T04:27:47.211Z,4.25
2022-08-25T04:32:41.448Z,4.25
2022-08-25T04:37:35.412Z,4.53
2022-08-25T04:40:03.038Z,3.75
2022-08-25T04:42:29.768Z,4.80
2022-08-25T04:44:56.515Z,4.57
2022-08-25T04:49:50.063Z,4.53
2022-08-25T04:54:44.102Z,4.38
2022-08-25T04:57:11.346Z,4.28
2022-08-25T04:59:38.251Z,4.78
2022-08-25T05:02:06.721Z,4.75
2022-08-25T05:04:36.001Z,5.07
2022-08-25T05:07:03.723Z,5.00
2022-08-25T05:09:32.037Z,5.68
2022-08-25T05:12:04.251Z,4.88
2022-08-25T05:14:32.522Z,5.22
2022-08-25T05:16:59.757Z,5.60
2022-08-25T05:19:27.563Z,8.75
2022-08-25T05:21:54.824Z,6.78
2022-08-25T05:24:25.638Z,4.88
2022-08-25T05:26:52.528Z,4.03
2022-08-25T05:31:50.411Z,4.03
2022-08-25T05:34:18.843Z,4.35
2022-08-25T05:36:45.887Z,3.75
2022-08-25T05:39:12.939Z,3.92
2022-08-25T05:41:40.256Z,3.55
2022-08-25T05:44:07.602Z,4.25
2022-08-25T05:46:34.393Z,4.82
2022-08-25T05:51:28.902Z,4.57
2022-08-25T05:53:55.862Z,4.28
2022-08-25T05:56:22.880Z,4.38
2022-08-25T05:58:50.302Z,4.47
2022-08-25T06:01:46.834Z,3.65
2022-08-25T06:04:17.984Z,4.60
2022-08-25T06:06:44.861Z,5.03
2022-08-25T06:11:40.168Z,4.53
2022-08-25T06:14:08.723Z,4.38
2022-08-25T06:16:35.699Z,5.00
2022-08-25T06:19:02.739Z,4.25
2022-08-25T06:23:58.993Z,4.10
2022-08-25T06:26:26.213Z,3.60
2022-08-25T06:28:53.490Z,4.60
2022-08-25T06:31:22.274Z,4.45
2022-08-25T06:33:49.960Z,4.93
2022-08-25T06:36:17.428Z,4.22
2022-08-25T06:38:44.207Z,4.15
2022-08-25T06:43:44.978Z,4.20
2022-08-25T06:48:45.018Z,4.25
2022-08-25T06:51:14.392Z,3.63
2022-08-25T06:53:42.764Z,3.70
2022-08-25T06:56:10.137Z,3.40
2022-08-25T06:58:37.591Z,3.95
2022-08-25T07:01:22.152Z,3.65
2022-08-25T07:03:50.410Z,3.60
2022-08-25T07:06:19.783Z,4.13
2022-08-25T07:08:48.090Z,6.63
2022-08-25T07:11:17.550Z,4.57
2022-08-25T07:13:45.684Z,3.90
2022-08-25T07:16:15.350Z,5.45
2022-08-25T07:18:42.450Z,4.72
2022-08-25T07:21:12.724Z,4.40
2022-08-25T07:23:40.989Z,4.30
2022-08-25T07:26:35.980Z,6.63
2022-08-25T07:29:01.952Z,4.72
2022-08-25T07:31:30.213Z,5.25
2022-08-25T07:34:16.338Z,4.70
2022-08-25T07:36:44.436Z,4.40
2022-08-25T07:39:11.744Z,5.18
2022-08-25T07:41:41.462Z,4.93
2022-08-25T07:44:10.034Z,4.15
2022-08-25T07:46:37.530Z,4.15
2022-08-25T07:49:09.231Z,4.25
2022-08-25T07:52:05.548Z,4.30
2022-08-25T07:54:35.422Z,4.78
2022-08-25T07:57:06.926Z,4.70
2022-08-25T07:59:39.543Z,3.80
2022-08-25T08:02:18.819Z,4.25
2022-08-25T08:04:50.775Z,4.03
2022-08-25T08:07:20.821Z,4.68
2022-08-25T08:09:56.149Z,3.70
2022-08-25T08:12:34.024Z,3.35
2022-08-25T08:15:01.828Z,3.58
2022-08-25T08:17:29.056Z,3.97
2022-08-25T08:19:55.884Z,3.78
2022-08-25T08:22:23.276Z,3.40
2022-08-25T08:24:56.058Z,3.35
2022-08-25T08:27:24.584Z,4.20
2022-08-25T08:29:52.342Z,3.10
2022-08-25T08:32:20.260Z,3.55
2022-08-25T08:34:52.568Z,3.08
2022-08-25T08:37:21.265Z,2.90
2022-08-25T08:39:51.309Z,3.40
2022-08-25T08:42:36.817Z,3.35
2022-08-25T08:45:04.287Z,3.72
2022-08-25T08:47:47.627Z,2.67
2022-08-25T08:50:33.772Z,3.25
2022-08-25T08:53:08.174Z,2.80
2022-08-25T08:55:52.905Z,3.60
2022-08-25T08:58:39.235Z,3.55
2022-08-25T09:01:12.403Z,4.18
2022-08-25T09:03:55.042Z,3.45
2022-08-25T09:06:28.481Z,3.05
2022-08-25T09:08:58.940Z,3.47
2022-08-25T09:11:44.083Z,3.75
2022-08-25T09:14:30.672Z,3.90
2022-08-25T09:17:05.985Z,3.67
2022-08-25T09:20:02.825Z,4.07
2022-08-25T09:22:42.893Z,3.63
2022-08-25T09:25:52.502Z,4.35
2022-08-25T09:28:45.862Z,4.75
2022-08-25T09:31:38.695Z,4.15
2022-08-25T09:34:11.840Z,5.95
2022-08-25T09:36:39.679Z,4.88
2022-08-25T09:39:07.889Z,5.00
2022-08-25T09:41:47.932Z,4.05
2022-08-25T09:44:33.385Z,4.53
2022-08-25T09:47:18.848Z,3.78
2022-08-25T09:49:51.510Z,5.75
2022-08-25T09:52:23.887Z,5.50
2022-08-25T09:54:54.723Z,4.95
2022-08-25T09:57:36.810Z,5.38
2022-08-25T10:00:28.980Z,6.53
2022-08-25T10:03:15.757Z,4.32
2022-08-25T10:06:13.356Z,4.68
2022-08-25T10:08:40.637Z,4.15
2022-08-25T10:11:13.232Z,4.95
2022-08-25T10:13:51.477Z,4.40
2022-08-25T10:16:30.852Z,4.00
2022-08-25T10:19:12.321Z,4.97
2022-08-25T10:21:42.916Z,4.30
2022-08-25T10:24:12.498Z,4.15
2022-08-25T10:26:57.196Z,3.65
2022-08-25T10:29:34.740Z,3.47
2022-08-25T10:34:51.303Z,4.30
2022-08-25T10:37:26.586Z,3.70
2022-08-25T10:40:18.018Z,3.80
2022-08-25T10:43:12.758Z,3.15
2022-08-25T10:45:49.498Z,5.72
2022-08-25T10:48:36.354Z,2.92
2022-08-25T10:51:08.845Z,3.05
2022-08-25T10:54:05.994Z,2.33
2022-08-25T10:56:43.286Z,3.60
2022-08-25T10:59:32.960Z,4.78
2022-08-25T11:02:23.121Z,5.13
2022-08-25T11:04:52.981Z,5.68
2022-08-25T11:07:35.876Z,4.55
2022-08-25T11:10:09.773Z,4.60
2022-08-25T11:12:44.430Z,4.35
2022-08-25T11:15:21.417Z,4.20
2022-08-25T11:18:15.013Z,4.15
2022-08-25T11:20:48.434Z,3.67
2022-08-25T11:23:58.294Z,5.22
2022-08-25T11:26:36.867Z,4.65
2022-08-25T11:29:18.279Z,4.40
2022-08-25T11:31:52.978Z,4.70
2022-08-25T11:34:22.296Z,3.50
2022-08-25T11:37:07.759Z,3.97
2022-08-25T11:40:15.246Z,3.28
2022-08-25T11:43:00.493Z,3.47
2022-08-25T11:45:37.367Z,3.78
2022-08-25T11:48:37.176Z,4.20
2022-08-25T11:51:30.837Z,2.75
2022-08-25T11:54:28.516Z,2.92
2022-08-25T11:57:01.307Z,2.97
2022-08-25T12:00:04.631Z,3.00
2022-08-25T12:02:48.631Z,3.72
2022-08-25T12:05:22.170Z,3.13
2022-08-25T12:08:18.871Z,3.42
2022-08-25T12:11:11.882Z,2.97
2022-08-25T12:14:16.098Z,3.38
2022-08-25T12:17:00.566Z,2.70
2022-08-25T12:19:36.475Z,2.92
2022-08-25T12:22:04.872Z,2.70
2022-08-25T12:24:48.066Z,3.25
2022-08-25T12:27:59.585Z,3.25
2022-08-25T12:30:32.534Z,2.75
2022-08-25T12:33:39.586Z,3.05
2022-08-25T12:36:11.317Z,2.75
2022-08-25T12:38:52.124Z,3.00
2022-08-25T12:41:31.070Z,2.85
2022-08-25T12:44:39.628Z,3.40
2022-08-25T12:47:24.373Z,2.95
2022-08-25T12:49:51.410Z,2.55
2022-08-25T12:52:26.088Z,2.92
2022-08-25T12:54:59.517Z,3.08
2022-08-25T12:57:46.452Z,3.53
2022-08-25T13:02:56.450Z,3.83
2022-08-25T13:05:40.634Z,2.83
2022-08-25T13:08:27.049Z,3.05
2022-08-25T13:11:21.984Z,3.50
2022-08-25T13:14:05.097Z,3.67
2022-08-25T13:16:33.902Z,3.10
2022-08-25T13:19:06.722Z,2.72
2022-08-25T13:21:37.222Z,3.28
2022-08-25T13:24:12.452Z,3.08
2022-08-25T13:26:48.139Z,2.92
2022-08-25T13:29:20.872Z,3.00
2022-08-25T13:32:14.801Z,2.67
2022-08-25T13:34:43.258Z,3.03
2022-08-25T13:37:29.693Z,2.78
2022-08-25T13:42:43.722Z,3.05
2022-08-25T13:45:18.142Z,3.80
2022-08-25T13:47:46.690Z,2.53
2022-08-25T13:50:22.656Z,2.95
2022-08-25T13:53:14.101Z,2.33
2022-08-25T13:55:54.925Z,2.72
2022-08-25T13:58:44.687Z,3.05
2022-08-25T14:01:46.189Z,3.38
2022-08-25T14:04:39.763Z,2.92
2022-08-25T14:07:21.021Z,2.45
2022-08-25T14:10:00.251Z,2.88
2022-08-25T14:12:35.611Z,3.50
2022-08-25T14:15:12.068Z,4.00
2022-08-25T14:20:17.283Z,3.53
2022-08-25T14:22:44.381Z,3.47
2022-08-25T14:25:11.411Z,3.67
2022-08-25T14:28:03.579Z,3.58
2022-08-25T14:30:33.660Z,3.30
2022-08-25T14:33:02.406Z,3.42
2022-08-25T14:35:29.723Z,3.85
2022-08-25T14:37:58.865Z,3.38
2022-08-25T14:40:27.353Z,3.42
2022-08-25T14:42:56.932Z,3.72
2022-08-25T14:45:24.316Z,3.78
2022-08-25T14:47:51.671Z,3.92
2022-08-25T14:50:20.865Z,3.53
2022-08-25T14:52:51.940Z,3.10
2022-08-25T14:55:31.242Z,3.95
2022-08-25T14:57:59.789Z,3.17
2022-08-25T15:00:27.385Z,3.20
2022-08-25T15:02:57.279Z,3.83
2022-08-25T15:05:28.265Z,3.50
2022-08-25T15:08:14.268Z,3.20
2022-08-25T15:10:43.361Z,3.05
2022-08-25T15:13:10.899Z,3.13
2022-08-25T15:15:52.794Z,3.47
2022-08-25T15:18:21.870Z,3.60
2022-08-25T15:20:50.112Z,3.40
2022-08-25T15:23:18.585Z,3.65
2022-08-25T15:25:47.546Z,3.33
2022-08-25T15:28:17.147Z,3.15
2022-08-25T15:30:45.844Z,3.60
2022-08-25T15:33:16.017Z,3.63
2022-08-25T15:35:43.444Z,3.92
2022-08-25T15:38:12.385Z,3.65
2022-08-25T15:40:39.942Z,3.83
2022-08-25T15:43:07.515Z,3.05
2022-08-25T15:45:36.405Z,3.88
2022-08-25T15:48:06.759Z,3.63
2022-08-25T15:50:36.356Z,4.03
2022-08-25T15:53:03.463Z,3.83
2022-08-25T15:55:30.593Z,3.22
2022-08-25T15:58:00.889Z,3.92
2022-08-25T16:00:27.906Z,6.65
2022-08-25T16:02:58.749Z,3.25
2022-08-25T16:05:26.246Z,3.30
2022-08-25T16:07:54.102Z,3.85
2022-08-25T16:10:21.209Z,4.00
2022-08-25T16:12:48.988Z,3.50
2022-08-25T16:15:16.030Z,3.20
2022-08-25T16:17:45.920Z,3.35
2022-08-25T16:20:17.138Z,3.22
2022-08-25T16:22:45.298Z,4.20
2022-08-25T16:25:12.346Z,3.85
2022-08-25T16:27:39.283Z,3.65
2022-08-25T16:30:14.923Z,3.40
2022-08-25T16:32:44.444Z,3.42
2022-08-25T16:35:11.515Z,4.07
2022-08-25T16:37:38.289Z,3.85
2022-08-25T16:40:08.711Z,5.00
2022-08-25T16:42:35.591Z,5.15
2022-08-25T16:45:02.519Z,3.70
2022-08-25T16:47:37.024Z,3.97
2022-08-25T16:50:08.821Z,3.83
2022-08-25T16:52:56.310Z,4.45
2022-08-25T16:55:26.171Z,3.70
2022-08-25T16:57:54.126Z,3.83
2022-08-25T17:00:24.752Z,3.70
2022-08-25T17:02:58.288Z,3.90
2022-08-25T17:05:29.314Z,3.47
2022-08-25T17:08:17.462Z,3.33
2022-08-25T17:10:44.654Z,3.65
2022-08-25T17:13:12.808Z,3.67
2022-08-25T17:15:46.864Z,4.45
2022-08-25T17:18:13.845Z,4.50
2022-08-25T17:20:43.235Z,4.85
2022-08-25T17:23:12.291Z,4.10
2022-08-25T17:25:43.015Z,4.10
2022-08-25T17:28:12.278Z,4.25
2022-08-25T17:30:40.651Z,4.35
2022-08-25T17:33:07.394Z,4.00
2022-08-25T17:35:42.334Z,3.83
2022-08-25T17:38:10.041Z,4.40
2022-08-25T17:40:37.493Z,4.28
2022-08-25T17:43:05.843Z,4.40
2022-08-25T17:45:36.141Z,4.60
2022-08-25T17:48:03.575Z,4.63
2022-08-25T17:50:31.469Z,4.50
2022-08-25T17:52:58.258Z,4.32
2022-08-25T17:55:25.161Z,4.18
2022-08-25T17:57:52.293Z,4.10
2022-08-25T18:00:21.425Z,3.97
2022-08-25T18:02:49.159Z,4.22
2022-08-25T18:05:16.748Z,3.78
2022-08-25T18:07:44.064Z,4.18
2022-08-25T18:10:11.815Z,4.32
2022-08-25T18:12:39.208Z,5.78
2022-08-25T18:15:06.938Z,4.60
2022-08-25T18:17:35.791Z,5.40
2022-08-25T18:20:06.292Z,4.45
2022-08-25T18:22:33.200Z,4.25
2022-08-25T18:25:00.879Z,4.72
2022-08-25T18:27:30.074Z,4.88
2022-08-25T18:29:57.369Z,4.78
2022-08-25T18:32:26.007Z,4.68
2022-08-25T18:34:53.453Z,4.57
2022-08-25T18:37:39.165Z,4.38
2022-08-25T18:40:25.270Z,4.47
2022-08-25T18:42:59.531Z,4.53
2022-08-25T18:45:31.254Z,4.72
2022-08-25T18:47:59.678Z,5.22
2022-08-25T18:50:32.683Z,5.38
2022-08-25T18:53:00.309Z,5.70
2022-08-25T18:55:27.566Z,6.47
2022-08-25T18:57:55.534Z,6.50
2022-08-25T19:00:25.144Z,6.35
2022-08-25T19:02:54.972Z,5.63
2022-08-25T19:05:32.651Z,7.10
2022-08-25T19:08:06.607Z,6.10
2022-08-25T19:10:35.851Z,6.65
2022-08-25T19:13:08.273Z,6.55
2022-08-25T19:15:35.748Z,6.30
2022-08-25T19:18:04.236Z,5.68
2022-08-25T19:20:34.342Z,6.03
2022-08-25T19:23:01.992Z,6.45
2022-08-25T19:25:32.967Z,6.40
2022-08-25T19:28:00.642Z,6.72
2022-08-25T19:30:30.273Z,6.65
2022-08-25T19:32:57.871Z,6.40
2022-08-25T19:35:44.030Z,7.07
2022-08-25T19:38:34.054Z,6.65
2022-08-25T19:41:02.525Z,6.15
2022-08-25T19:43:35.956Z,6.30
2022-08-25T19:46:02.785Z,6.80
2022-08-25T19:48:29.632Z,6.43
2022-08-25T19:50:56.582Z,6.03
2022-08-25T19:53:23.546Z,5.97
2022-08-25T19:55:50.389Z,5.63
2022-08-25T19:58:17.867Z,6.57
2022-08-25T20:00:47.147Z,4.93
2022-08-25T20:03:17.324Z,5.90
2022-08-25T20:05:44.111Z,5.90
2022-08-25T20:08:10.946Z,7.35
2022-08-25T20:10:41.964Z,7.05
2022-08-25T20:13:09.106Z,6.05
2022-08-25T20:15:38.944Z,6.10
2022-08-25T20:18:06.835Z,6.65
2022-08-25T20:20:34.715Z,6.43
2022-08-25T20:23:21.680Z,5.93
2022-08-25T20:25:50.226Z,6.25
2022-08-25T20:28:19.024Z,6.60
2022-08-25T20:30:46.531Z,6.45
2022-08-25T20:33:13.435Z,6.78
2022-08-25T20:35:48.338Z,6.20
2022-08-25T20:38:15.068Z,6.40
2022-08-25T20:40:42.077Z,5.53
2022-08-25T20:43:10.577Z,6.15
2022-08-25T20:45:39.616Z,6.25
2022-08-25T20:48:07.034Z,6.75
2022-08-25T20:50:34.495Z,6.85
2022-08-25T20:53:01.428Z,6.15
2022-08-25T20:55:28.829Z,6.05
2022-08-25T20:57:55.617Z,6.18
2022-08-25T21:00:23.579Z,5.75
2022-08-25T21:02:52.160Z,5.50
2022-08-25T21:05:19.566Z,5.85
2022-08-25T21:07:46.302Z,6.50
2022-08-25T21:10:15.877Z,6.60
2022-08-25T21:12:43.159Z,7.00
2022-08-25T21:15:11.459Z,6.50
2022-08-25T21:17:38.863Z,5.50
2022-08-25T21:20:08.067Z,6.20
2022-08-25T21:22:36.112Z,6.55
2022-08-25T21:25:05.410Z,6.30
2022-08-25T21:27:33.752Z,5.93
2022-08-25T21:30:00.580Z,6.35
2022-08-25T21:32:27.285Z,6.03
2022-08-25T21:34:55.530Z,7.03
2022-08-25T21:37:24.084Z,6.38
2022-08-25T21:39:51.499Z,6.40
2022-08-25T21:42:20.216Z,6.80
2022-08-25T21:44:46.936Z,5.80
2022-08-25T21:52:08.187Z,5.80
2022-08-25T21:54:34.979Z,5.88
2022-08-25T21:57:04.212Z,5.65
2022-08-25T21:59:37.594Z,6.05
2022-08-25T22:02:08.790Z,4.80
2022-08-25T22:04:38.336Z,6.28
2022-08-25T22:07:06.997Z,5.30
2022-08-25T22:09:33.910Z,5.28
2022-08-25T22:12:00.715Z,5.35
2022-08-25T22:14:27.756Z,5.60
2022-08-25T22:16:55.395Z,5.75
2022-08-25T22:19:22.974Z,4.95
2022-08-25T22:21:50.919Z,5.95
2022-08-25T22:24:18.605Z,5.20
2022-08-25T22:26:48.458Z,5.15
2022-08-25T22:29:24.764Z,5.28
2022-08-25T22:31:58.584Z,5.67
2022-08-25T22:34:32.119Z,5.70
2022-08-25T22:37:03.634Z,5.07
2022-08-25T22:39:31.328Z,5.22
2022-08-25T22:41:59.742Z,4.75
2022-08-25T22:44:26.795Z,4.85
2022-08-25T22:46:53.612Z,4.90
2022-08-25T22:49:21.038Z,4.00
2022-08-25T22:51:47.837Z,5.35
2022-08-25T22:54:15.963Z,4.97
2022-08-25T22:56:43.607Z,4.38
2022-08-25T22:59:13.011Z,4.72
2022-08-25T23:01:40.900Z,4.53
2022-08-25T23:04:07.754Z,4.15
2022-08-25T23:06:34.881Z,4.40
2022-08-25T23:09:04.393Z,4.28
2022-08-25T23:11:31.397Z,4.68
2022-08-25T23:14:05.336Z,4.07
2022-08-25T23:16:32.999Z,3.90
2022-08-25T23:19:00.684Z,3.72
2022-08-25T23:21:46.875Z,3.80
2022-08-25T23:24:29.300Z,4.43
2022-08-25T23:27:02.111Z,3.85
2022-08-25T23:29:29.922Z,3.72
2022-08-25T23:31:58.082Z,3.90
2022-08-25T23:34:25.466Z,3.88
2022-08-25T23:36:52.498Z,4.05
2022-08-25T23:39:21.897Z,3.28
2022-08-25T23:41:49.765Z,3.55
2022-08-25T23:44:18.717Z,4.15
2022-08-25T23:46:47.463Z,3.22
2022-08-25T23:49:18.464Z,3.47
2022-08-25T23:51:47.558Z,3.80
2022-08-25T23:54:14.775Z,3.35
2022-08-25T23:56:44.972Z,3.63
2022-08-25T23:59:24.756Z,3.80
